Latest Weather Observations for Hervey Bay

IDQ60801

Issued at 12:02 pm EST Monday 31 August 2015 (issued every 30 minutes, with the page automatically refreshed every 10 minutes)

About weather observations | Map of weather stations | Latest weather observations for QLD | Other Formats
Station Details ID: 040405 Name: HERVEY BAY AIRPORT Lat: -25.32 Lon: 152.88 Height: 12.98 m
Data from the previous 72 hours. | See also: Recent months at Hervey Bay
Date/Time
EST
Temp
°C
App
Temp
°C
Dew
Point
Rel
Hum
%
Delta-T
°C
Wind Press
QNH
hPa
Press
MSL
hPa
Rain
since 9 am
mm
Dir
 
Spd
km/h
Gust
km/h
Spd
kts
Gust
kts
31/12:00pm 21.2 17.6 8.5 44 6.7 E 17 20 9 11 1014.9 1014.8 0.0
31/11:30am 21.1 19.2 7.7 42 6.9 WNW 7 11 4 6 1015.3 1015.2 0.0
31/11:00am 20.7 18.2 8.4 45 6.4 SSW 11 19 6 10 1015.7 1015.6 0.0
31/10:30am 19.9 16.7 7.0 43 6.5 SW 13 19 7 10 1016.1 1016.0 0.0
31/10:00am 18.7 15.2 5.5 42 6.4 SSW 13 19 7 10 1016.4 1016.3 0.0
31/09:30am 18.1 14.7 5.7 44 6.0 SSW 13 20 7 11 1016.8 1016.7 0.0
31/09:00am 16.7 12.4 5.3 47 5.5 SW 17 24 9 13 1016.9 1016.8 0.2
31/08:30am 15.2 10.9 5.4 52 4.7 SW 17 20 9 11 1016.9 1016.8 0.2
31/08:00am 14.2 10.0 5.6 56 4.1 SW 17 24 9 13 1016.8 1016.7 0.2
31/07:30am 13.0 9.0 4.9 58 3.7 WSW 15 22 8 12 1016.7 1016.6 0.2
31/07:00am 11.6 7.6 4.8 63 3.1 WSW 15 20 8 11 1016.5 1016.4 0.2
31/06:30am 10.2 6.5 4.6 68 2.5 WSW 13 19 7 10 1016.4 1016.3 0.2
31/06:00am 9.6 5.6 5.0 73 2.1 WSW 15 20 8 11 1016.0 1015.9 0.2
31/05:30am 8.5 5.0 5.6 82 1.3 WSW 13 17 7 9 1015.7 1015.6 0.2
31/05:00am 6.7 3.5 5.2 90 0.7 WSW 11 13 6 7 1015.6 1015.5 0.2
31/04:30am 6.9 4.7 5.4 90 0.7 SW 6 7 3 4 1015.6 1015.5 0.2
31/04:00am 7.7 6.6 5.3 85 1.1 CALM 0 4 0 2 1015.6 1015.5 0.2
31/03:30am 9.1 6.9 6.0 81 1.4 WSW 7 9 4 5 1015.6 1015.5 0.2
31/03:00am 10.3 7.5 5.3 71 2.3 WSW 9 11 5 6 1016.0 1015.9 0.2
31/02:30am 10.6 7.5 5.4 70 2.4 WSW 11 15 6 8 1016.3 1016.2 0.2
31/02:00am 10.8 7.6 5.3 69 2.5 W 11 13 6 7 1016.7 1016.6 0.2
31/01:30am 11.8 9.0 5.2 64 3.0 WSW 9 13 5 7 1016.9 1016.8 0.2
31/01:00am 11.9 8.8 5.5 65 3.0 WSW 11 15 6 8 1017.1 1017.0 0.2
31/12:30am 12.0 9.4 5.9 66 2.9 SW 9 11 5 6 1017.0 1016.9 0.2
31/12:00am 12.8 10.2 5.9 63 3.2 SW 9 13 5 7 1017.1 1017.0 0.2
 
Date/Time
EST
Temp
°C
App
Temp
°C
Dew
Point
Rel
Hum
%
Delta-T
°C
Wind Press
QNH
hPa
Press
MSL
hPa
Rain
since 9 am
mm
Dir
 
Spd
km/h
Gust
km/h
Spd
kts
Gust
kts
30/11:30pm 12.8 10.2 6.2 64 3.1 WSW 9 13 5 7 1017.1 1017.0 0.2
30/11:00pm 12.2 10.2 7.3 72 2.4 SW 7 9 4 5 1017.2 1017.1 0.2
30/10:30pm 14.1 11.5 6.2 59 3.8 SW 9 13 5 7 1017.1 1017.0 0.2
30/10:00pm 14.2 11.3 6.6 60 3.7 SW 11 13 6 7 1017.0 1016.9 0.2
30/09:30pm 13.8 11.5 7.6 66 3.0 SW 9 13 5 7 1016.9 1016.8 0.2
30/09:00pm 14.6 12.5 8.1 65 3.2 SW 9 13 5 7 1016.7 1016.6 0.2
30/08:30pm 14.5 13.1 9.7 73 2.5 SW 7 15 4 8 1016.5 1016.4 0.2
30/08:00pm 13.7 12.2 10.7 82 1.6 SW 9 13 5 7 1016.3 1016.2 0.2
30/07:30pm 14.7 14.2 12.6 87 1.1 WSW 7 11 4 6 1015.9 1015.8 0.2
30/07:00pm 15.5 16.4 13.9 90 0.9 WSW 2 7 1 4 1015.5 1015.4 0.2
30/06:30pm 16.7 17.5 14.9 89 1.0 WSW 4 7 2 4 1015.1 1015.0 0.2
30/06:00pm 17.7 18.9 14.8 83 1.7 W 2 6 1 3 1014.7 1014.6 0.2
30/05:30pm 19.2 19.5 14.5 74 2.7 N 6 9 3 5 1014.4 1014.3 0.2
30/05:00pm 19.8 19.6 14.8 73 2.9 N 9 11 5 6 1014.0 1013.9 0.2
30/04:30pm 20.3 20.7 14.7 70 3.3 N 6 9 3 5 1013.7 1013.6 0.2
30/04:00pm 20.4 19.3 14.3 68 3.5 NE 13 19 7 10 1013.8 1013.7 0.2
30/03:30pm 21.2 20.9 14.4 65 4.0 N 9 17 5 9 1013.9 1013.8 0.2
30/03:00pm 22.5 21.7 14.1 59 4.9 NW 11 19 6 10 1014.0 1013.9 0.2
30/02:30pm 23.8 22.0 13.4 52 6.0 W 15 24 8 13 1014.3 1014.2 0.2
30/02:00pm 22.2 20.2 12.7 55 5.4 SSW 15 19 8 10 1014.5 1014.4 0.0
30/01:30pm 21.2 20.4 12.9 59 4.7 SW 9 15 5 8 1014.9 1014.8 0.0
30/01:00pm 21.0 20.0 13.4 62 4.4 SSW 11 19 6 10 1015.6 1015.5 0.0
30/12:30pm 19.5 18.1 13.4 68 3.5 SW 13 19 7 10 1016.1 1016.0 0.0
30/12:00pm 18.8 17.5 12.5 67 3.5 SW 11 17 6 9 1016.6 1016.5 0.0
30/11:30am 18.9 17.2 13.5 71 3.1 SSW 15 22 8 12 1017.0 1016.9 0.0
30/11:00am 18.7 17.5 14.0 74 2.7 SW 13 22 7 12 1017.4 1017.3 0.0
30/10:30am 17.9 16.2 13.6 76 2.4 SW 15 20 8 11 1017.6 1017.5 0.0
30/10:15am 17.8 16.7 14.3 80 2.0 SW 13 17 7 9 1017.8 1017.7 0.0
30/10:00am 17.3 16.2 14.4 83 1.7 SW 13 19 7 10 1018.0 1018.0 0.0
30/09:40am 17.2 16.0 15.0 87 1.3 SW 15 19 8 10 1018.1 1018.1 0.0
30/09:38am 17.1 15.8 14.9 87 1.3 SW 15 19 8 10 1018.2 1018.2 0.0
30/09:30am 17.0 16.2 15.0 88 1.2 SW 13 17 7 9 1018.2 1018.2 0.0
30/09:18am 16.7 15.8 14.9 89 1.0 SW 13 20 7 11 1018.5 1018.5 0.0
30/09:08am 16.6 16.1 14.8 89 1.0 SW 11 19 6 10 1018.5 1018.5 0.0
30/09:00am 16.6 15.8 15.0 90 0.9 WSW 13 20 7 11 1018.6 1018.6 7.4
30/08:30am 16.4 15.6 15.1 92 0.8 WSW 13 20 7 11 1018.3 1018.3 7.4
30/08:00am 16.1 15.3 15.0 93 0.6 WSW 13 19 7 10 1018.1 1018.1 7.4
30/07:30am 16.0 15.9 15.0 94 0.6 SW 9 15 5 8 1017.5 1017.4 7.4
30/07:29am 16.1 16.1 15.1 94 0.6 SW 9 15 5 8 1017.5 1017.4 7.4
30/07:00am 15.8 16.3 15.0 95 0.5 SW 6 7 3 4 1017.4 1017.3 7.4
30/06:30am 15.7 16.0 14.9 95 0.5 W 7 9 4 5 1017.3 1017.2 7.4
30/06:00am 15.8 15.6 14.8 94 0.6 WSW 9 15 5 8 1017.1 1017.0 7.4
30/05:30am 15.9 16.4 14.9 94 0.6 W 6 7 3 4 1016.5 1016.4 7.2
30/05:00am 15.9 16.4 14.9 94 0.6 NW 6 9 3 5 1016.5 1016.4 7.2
30/04:30am 16.0 17.2 15.0 94 0.6 NNW 2 6 1 3 1016.2 1016.1 6.8
30/04:00am 16.0 17.6 15.0 94 0.6 CALM 0 2 0 1 1016.6 1016.5 6.2
30/03:30am 15.9 15.8 14.9 94 0.6 SW 9 11 5 6 1017.1 1017.0 6.0
30/03:00am 16.1 16.6 15.1 94 0.6 SW 6 7 3 4 1017.5 1017.4 5.8
30/02:30am 16.1 17.4 15.1 94 0.6 SW 2 6 1 3 1017.9 1017.8 5.6
30/02:00am 16.2 17.1 15.1 93 0.6 NE 4 7 2 4 1018.0 1018.0 5.6
30/01:46am 16.2 17.1 15.2 94 0.6 NNE 4 7 2 4 1018.0 1018.0 5.2
30/01:30am 16.2 17.9 15.1 93 0.6 CALM 0 4 0 2 1018.3 1018.3 5.0
30/01:25am 16.2 17.5 15.1 93 0.6 NNW 2 7 1 4 1018.5 1018.5 4.6
30/01:00am 16.1 16.6 15.0 93 0.6 S 6 11 3 6 1018.6 1018.6 3.6
30/12:30am 16.3 16.3 15.3 94 0.6 S 9 13 5 7 1019.0 1019.0 3.6
30/12:00am 16.3 15.5 15.2 93 0.6 SSW 13 20 7 11 1019.3 1019.3 3.6
 
Date/Time
EST
Temp
°C
App
Temp
°C
Dew
Point
Rel
Hum
%
Delta-T
°C
Wind Press
QNH
hPa
Press
MSL
hPa
Rain
since 9 am
mm
Dir
 
Spd
km/h
Gust
km/h
Spd
kts
Gust
kts
29/11:30pm 16.4 15.7 15.3 93 0.6 SSW 13 20 7 11 1019.7 1019.7 3.4
29/11:00pm 16.8 17.0 15.7 93 0.6 SSW 9 13 5 7 1019.7 1019.7 3.4
29/10:49pm 17.0 16.9 15.9 93 0.6 SW 11 15 6 8 1019.7 1019.7 2.8
29/10:33pm 17.0 17.6 15.7 92 0.8 S 7 9 4 5 1019.5 1019.5 2.6
29/10:30pm 17.0 17.6 15.7 92 0.8 S 7 11 4 6 1019.5 1019.5 2.2
29/10:00pm 17.0 16.9 15.9 93 0.6 SSW 11 19 6 10 1019.5 1019.5 1.6
29/09:30pm 17.0 16.5 15.9 93 0.6 SW 13 19 7 10 1019.3 1019.3 1.6
29/09:00pm 17.1 16.3 16.0 93 0.6 SW 15 22 8 12 1019.5 1019.5 1.4
29/08:30pm 17.3 15.4 15.8 91 0.9 SW 20 28 11 15 1019.5 1019.5 0.6
29/08:07pm 20.1 19.5 15.7 76 2.6 W 13 41 7 22 1019.4 1019.4 0.0
29/08:00pm 20.9 22.0 17.9 83 1.9 WNW 9 13 5 7 1019.1 1019.1 0.0
29/07:30pm 20.8 23.4 17.4 81 2.1 CALM 0 0 0 0 1018.7 1018.7 0.0
29/07:00pm 21.0 22.3 17.2 79 2.3 NNE 6 9 3 5 1018.2 1018.2 0.0
29/06:30pm 21.4 22.2 17.4 78 2.5 ENE 9 13 5 7 1017.7 1017.6 0.0
29/06:00pm 21.3 22.0 17.1 77 2.6 ENE 9 13 5 7 1017.3 1017.2 0.0
29/05:30pm 21.5 21.8 16.9 75 2.8 E 11 15 6 8 1017.3 1017.2 0.0
29/05:00pm 22.0 21.4 16.7 72 3.2 E 15 20 8 11 1017.0 1016.9 0.0
29/04:30pm 22.6 21.8 17.1 71 3.4 E 17 20 9 11 1016.9 1016.8 0.0
29/04:00pm 22.9 21.8 16.4 67 3.9 ESE 17 20 9 11 1017.3 1017.2 0.0
29/03:30pm 23.7 23.1 16.7 65 4.3 E 15 20 8 11 1017.5 1017.4 0.0
29/03:00pm 23.8 23.1 16.3 63 4.6 E 15 19 8 10 1017.6 1017.5 0.0
29/02:30pm 24.0 23.3 16.3 62 4.7 ESE 15 24 8 13 1018.0 1018.0 0.0
29/02:00pm 23.9 23.4 15.9 61 4.8 ESE 13 22 7 12 1018.4 1018.4 0.0
29/01:30pm 25.4 24.4 15.7 55 5.9 ESE 15 20 8 11 1018.7 1018.7 0.0
29/01:00pm 24.2 23.6 15.7 59 5.1 ESE 13 20 7 11 1019.5 1019.5 0.0
29/12:30pm 23.6 22.7 15.9 62 4.7 SE 15 20 8 11 1019.8 1019.8 0.0
29/12:00pm 23.9 22.7 16.2 62 4.7 ESE 17 24 9 13 1020.3 1020.3 0.0
29/11:30am 22.6 22.2 16.2 67 3.9 ESE 13 22 7 12 1020.9 1020.9 0.0
29/11:00am 22.7 22.4 16.5 68 3.8 SSE 13 20 7 11 1021.0 1021.0 0.0
29/10:30am 21.9 21.8 16.0 69 3.6 SSW 11 19 6 10 1021.8 1021.8 0.0
29/10:00am 22.2 22.3 16.5 70 3.5 SSE 11 17 6 9 1021.9 1021.9 0.0
29/09:30am 22.7 21.6 16.3 67 3.9 SE 17 26 9 14 1022.1 1022.1 0.0
29/09:00am 21.5 20.8 15.3 68 3.7 S 13 20 7 11 1022.0 1022.0 0.0
29/08:30am 20.7 19.9 15.0 70 3.4 SW 13 17 7 9 1021.9 1021.9 0.0
29/08:00am 19.4 18.8 14.6 74 2.8 S 11 15 6 8 1021.5 1021.5 0.0
29/07:30am 18.0 17.4 14.5 80 2.0 SW 11 17 6 9 1021.5 1021.5 0.0
29/07:00am 16.7 17.0 14.9 89 1.0 SW 7 9 4 5 1021.4 1021.4 0.0
29/06:30am 16.4 16.6 14.8 90 0.9 S 7 9 4 5 1020.9 1020.9 0.0
29/06:00am 16.6 16.9 15.1 91 0.9 SSW 7 9 4 5 1020.9 1020.9 0.0
29/05:30am 17.0 17.4 15.3 90 1.0 SSW 7 11 4 6 1020.7 1020.7 0.0
29/05:00am 17.2 17.6 15.2 88 1.2 S 7 11 4 6 1020.0 1020.0 0.0
29/04:30am 17.7 17.4 15.5 87 1.3 SSW 11 15 6 8 1020.3 1020.3 0.0
29/04:00am 17.8 17.9 15.4 86 1.4 S 9 13 5 7 1020.2 1020.2 0.0
29/03:30am 17.9 17.7 15.7 87 1.3 SSW 11 15 6 8 1020.4 1020.4 0.0
29/03:00am 17.9 18.2 16.1 89 1.1 SSW 9 13 5 7 1020.6 1020.6 0.0
29/02:30am 17.6 18.3 16.1 91 0.9 S 7 11 4 6 1020.6 1020.6 0.0
29/02:00am 17.5 17.8 16.0 91 0.9 SSW 9 13 5 7 1020.8 1020.8 0.0
29/01:30am 17.8 18.1 16.0 89 1.1 S 9 11 5 6 1020.8 1020.8 0.0
29/01:00am 18.3 18.4 16.5 89 1.1 SSW 11 15 6 8 1021.2 1021.2 0.0
29/12:30am 18.4 18.6 16.7 90 1.0 SSW 11 17 6 9 1021.6 1021.6 0.0
29/12:00am 18.4 18.6 16.7 90 1.0 SW 11 15 6 8 1021.4 1021.4 0.0
 
Date/Time
EST
Temp
°C
App
Temp
°C
Dew
Point
Rel
Hum
%
Delta-T
°C
Wind Press
QNH
hPa
Press
MSL
hPa
Rain
since 9 am
mm
Dir
 
Spd
km/h
Gust
km/h
Spd
kts
Gust
kts
28/11:30pm 18.7 19.3 16.8 89 1.1 SW 9 11 5 6 1021.5 1021.5 0.0
28/11:00pm 18.7 19.5 17.2 91 0.9 SSW 9 11 5 6 1021.6 1021.6 0.0
28/10:30pm 18.3 19.5 16.8 91 0.9 S 6 9 3 5 1021.1 1021.1 0.0
28/10:00pm 17.9 18.6 16.1 89 1.1 S 7 9 4 5 1021.2 1021.2 0.0
28/09:30pm 19.1 20.2 16.7 86 1.4 SSE 6 7 3 4 1021.2 1021.2 0.0
28/09:00pm 19.5 20.5 16.9 85 1.6 SSE 7 11 4 6 1021.4 1021.4 0.0
28/08:30pm 19.9 21.1 16.9 83 1.8 SSE 6 9 3 5 1021.2 1021.2 0.0
28/08:00pm 20.5 21.9 17.9 85 1.6 S 7 9 4 5 1021.1 1021.1 0.0
28/07:30pm 20.3 21.7 17.9 86 1.5 SSW 7 9 4 5 1020.5 1020.5 0.0
28/07:00pm 20.4 21.8 17.4 83 1.8 S 6 9 3 5 1019.9 1019.9 0.0
28/06:30pm 21.3 22.6 17.5 79 2.3 NE 7 11 4 6 1019.7 1019.7 0.0
28/06:00pm 21.2 22.7 18.0 82 2.0 ENE 7 9 4 5 1019.2 1019.2 0.0
28/05:30pm 21.6 22.4 17.2 76 2.7 NNE 9 11 5 6 1018.5 1018.5 0.0
28/05:00pm 22.0 21.8 16.7 72 3.2 N 13 17 7 9 1018.3 1018.3 0.0
28/04:30pm 23.1 22.9 16.6 67 4.0 NNE 13 17 7 9 1018.1 1018.1 0.0
28/04:00pm 23.1 22.8 16.4 66 4.1 N 13 20 7 11 1018.0 1018.0 0.0
28/03:30pm 23.5 22.4 16.3 64 4.4 N 17 22 9 12 1018.0 1018.0 0.0
28/03:00pm 24.1 22.8 15.9 60 5.0 N 17 22 9 12 1017.9 1017.8 0.0
28/02:30pm 24.1 23.3 16.1 61 4.9 N 15 20 8 11 1018.2 1018.2 0.0
28/02:00pm 24.7 23.6 16.4 60 5.1 N 17 24 9 13 1018.3 1018.3 0.0
28/01:30pm 25.1 23.2 15.7 56 5.7 N 20 28 11 15 1018.6 1018.6 0.0
28/01:00pm 24.5 22.7 16.0 59 5.2 N 20 28 11 15 1018.9 1018.9 0.0
28/12:30pm 24.9 23.4 16.3 59 5.3 N 19 24 10 13 1019.4 1019.4 0.0

Other Formats:

Comma delimited format used in spreadsheet applications
http://www.bom.gov.au/fwo/IDQ60801/IDQ60801.95565.axf

JavaScript Object Notation format (JSON) in row-major order
http://www.bom.gov.au/fwo/IDQ60801/IDQ60801.95565.json